Time;durP1;ratioP1;P1;durP2;ratioP2;P2;SDS_P1;SDS_P2;PMS_P1;PMS_P2;Temp;Humidity;BMP_temperature;BMP_pressure;BME280_temperature;BME280_humidity;BME280_pressure;Samples;Min_cycle;Max_cycle;Signal;HPM_P1;HPM_P2
2022/03/09 00:01:42;;;;;;;12.90;10.47;;;1.90;15.80;;;;;;2611518;54;20143;-75
2022/03/09 00:04:07;;;;;;;19.90;11.83;;;1.80;15.70;;;;;;2611118;54;20158;-75
2022/03/09 00:06:33;;;;;;;16.07;9.47;;;1.90;15.50;;;;;;2610830;54;20211;-75
2022/03/09 00:08:59;;;;;;;16.73;10.67;;;1.70;15.70;;;;;;2608091;54;20154;-74
2022/03/09 00:11:25;;;;;;;21.73;11.80;;;1.70;16.70;;;;;;2608410;54;20254;-76
2022/03/09 00:13:52;;;;;;;18.40;11.33;;;1.70;17.20;;;;;;2610557;54;20189;-75
2022/03/09 00:16:18;;;;;;;17.97;12.20;;;1.60;17.60;;;;;;2611356;39;20471;-75
2022/03/09 00:18:45;;;;;;;15.27;10.10;;;1.50;19.20;;;;;;2613853;54;20386;-76
2022/03/09 00:21:11;;;;;;;14.23;10.33;;;1.50;20.10;;;;;;2612447;47;20451;-76
2022/03/09 00:23:37;;;;;;;14.47;10.60;;;1.30;21.30;;;;;;2612055;47;20438;-74
2022/03/09 00:26:04;;;;;;;16.40;11.70;;;1.30;23.70;;;;;;2607760;54;20435;-76
2022/03/09 00:28:30;;;;;;;15.63;10.80;;;1.20;25.60;;;;;;2611881;54;20414;-75
2022/03/09 00:30:56;;;;;;;15.00;10.60;;;1.10;25.90;;;;;;2611467;54;22203;-75
2022/03/09 00:33:21;;;;;;;17.37;11.60;;;1.20;25.00;;;;;;2608662;54;20451;-75
2022/03/09 00:35:47;;;;;;;14.47;10.70;;;1.20;24.60;;;;;;2606951;54;20403;-76
2022/03/09 00:38:13;;;;;;;18.00;10.80;;;1.20;25.10;;;;;;2607103;54;20150;-76
2022/03/09 00:40:39;;;;;;;15.57;10.43;;;1.30;24.50;;;;;;2609111;47;20290;-75
2022/03/09 00:43:05;;;;;;;18.77;11.83;;;1.30;23.80;;;;;;2610768;47;20494;-76
2022/03/09 00:45:31;;;;;;;11.80;10.67;;;1.40;23.50;;;;;;2611606;54;20421;-75
2022/03/09 00:47:57;;;;;;;13.40;10.67;;;1.30;23.90;;;;;;2611711;47;20399;-75
2022/03/09 00:50:23;;;;;;;14.67;10.57;;;1.20;24.40;;;;;;2611252;46;20158;-75
2022/03/09 00:52:49;;;;;;;14.50;10.10;;;1.30;26.00;;;;;;2610745;54;20419;-76
2022/03/09 00:55:15;;;;;;;17.57;11.57;;;1.10;27.00;;;;;;2612086;54;21349;-76
2022/03/09 00:57:41;;;;;;;14.90;11.97;;;1.20;27.20;;;;;;2610919;54;20374;-75
2022/03/09 01:00:09;;;;;;;28.83;16.97;;;1.20;26.60;;;;;;2606399;54;20410;-75
2022/03/09 01:02:45;;;;;;;22.13;16.00;;;1.10;27.20;;;;;;2606905;54;20415;-76
2022/03/09 01:05:13;;;;;;;23.13;15.13;;;1.10;27.10;;;;;;2607484;54;20936;-75
2022/03/09 01:07:39;;;;;;;17.50;13.10;;;0.90;29.60;;;;;;2611191;47;20454;-74
2022/03/09 01:10:06;;;;;;;17.33;12.50;;;0.80;30.40;;;;;;2611233;54;20434;-75
2022/03/09 01:12:32;;;;;;;13.17;10.83;;;1.00;30.30;;;;;;2611056;51;20400;-75
2022/03/09 01:14:58;;;;;;;18.23;11.80;;;0.90;30.30;;;;;;2607656;54;20388;-75
2022/03/09 01:17:26;;;;;;;16.90;11.97;;;0.80;31.20;;;;;;2606412;54;20426;-76
2022/03/09 01:19:53;;;;;;;17.27;11.73;;;0.80;31.00;;;;;;2609307;51;20395;-75
2022/03/09 01:22:19;;;;;;;19.10;12.47;;;0.80;32.20;;;;;;2612627;54;20359;-75
2022/03/09 01:24:46;;;;;;;21.00;11.20;;;0.80;33.30;;;;;;2611447;54;20423;-77
2022/03/09 01:27:12;;;;;;;15.23;10.47;;;0.80;33.50;;;;;;2610468;47;20533;-76
2022/03/09 01:29:39;;;;;;;17.07;10.87;;;0.90;33.10;;;;;;2610014;47;20433;-75
2022/03/09 01:32:05;;;;;;;15.20;11.17;;;0.80;33.30;;;;;;2609151;54;20968;-75
2022/03/09 01:34:31;;;;;;;18.47;10.00;;;0.70;35.40;;;;;;2609460;47;20524;-76
2022/03/09 01:36:57;;;;;;;15.10;9.87;;;0.80;35.70;;;;;;2608178;54;20426;-76
2022/03/09 01:39:23;;;;;;;15.83;10.00;;;0.80;35.80;;;;;;2612360;54;20935;-76
2022/03/09 01:41:50;;;;;;;12.43;8.10;;;0.90;33.80;;;;;;2613207;54;20149;-76
2022/03/09 01:44:19;;;;;;;14.97;9.50;;;1.00;29.20;;;;;;2610718;51;20427;-76
2022/03/09 01:46:51;;;;;;;10.67;8.20;;;1.20;27.20;;;;;;2610424;47;20421;-76
2022/03/09 01:49:18;;;;;;;15.70;9.13;;;1.40;23.60;;;;;;2612737;51;20419;-76
2022/03/09 01:51:47;;;;;;;18.10;9.03;;;1.30;23.30;;;;;;2613696;54;20554;-75
2022/03/09 01:54:13;;;;;;;11.17;8.20;;;1.30;24.30;;;;;;2614147;54;20994;-75
2022/03/09 01:56:40;;;;;;;12.80;9.97;;;1.40;23.10;;;;;;2613011;39;20764;-76
2022/03/09 01:59:08;;;;;;;10.73;7.83;;;1.30;24.40;;;;;;2613414;54;20391;-76
2022/03/09 02:01:34;;;;;;;11.23;8.80;;;1.40;24.40;;;;;;2612532;54;20421;-75
2022/03/09 02:04:02;;;;;;;10.67;7.77;;;1.50;23.90;;;;;;2611773;54;20427;-75
2022/03/09 02:06:30;;;;;;;8.87;7.97;;;1.50;20.90;;;;;;2611639;47;20541;-75
2022/03/09 02:11:42;;;;;;;10.33;8.10;;;1.60;15.60;;;;;;2610712;54;20403;-75
2022/03/09 02:14:36;;;;;;;9.70;7.70;;;1.70;15.20;;;;;;2610966;47;20454;-75
2022/03/09 02:17:28;;;;;;;12.40;8.33;;;1.70;16.20;;;;;;2611783;54;20410;-76
2022/03/09 02:19:55;;;;;;;9.20;7.00;;;1.60;19.20;;;;;;2613448;47;20423;-75
2022/03/09 02:22:21;;;;;;;13.03;7.97;;;1.60;19.40;;;;;;2612854;54;20431;-76
2022/03/09 02:24:48;;;;;;;9.83;7.60;;;1.50;19.50;;;;;;2612753;39;20892;-77
2022/03/09 02:27:14;;;;;;;9.60;8.60;;;1.30;20.90;;;;;;2612654;54;20671;-76
2022/03/09 02:29:41;;;;;;;12.90;9.00;;;1.20;21.90;;;;;;2613059;54;20426;-76
2022/03/09 02:32:07;;;;;;;11.50;8.50;;;1.10;23.20;;;;;;2612272;54;20426;-75
2022/03/09 02:34:33;;;;;;;11.03;9.00;;;1.00;23.90;;;;;;2611058;46;20408;-76
2022/03/09 02:36:59;;;;;;;12.70;8.90;;;0.90;25.20;;;;;;2612170;54;20411;-76
2022/03/09 02:39:25;;;;;;;11.57;10.13;;;0.80;26.30;;;;;;2612310;54;20424;-76
2022/03/09 02:41:51;;;;;;;11.10;9.40;;;0.70;28.50;;;;;;2612677;54;20386;-75
2022/03/09 02:44:17;;;;;;;12.33;9.67;;;0.60;30.40;;;;;;2613418;39;20891;-76
2022/03/09 02:46:43;;;;;;;11.43;9.40;;;0.70;30.70;;;;;;2608723;54;20582;-75
2022/03/09 02:49:08;;;;;;;13.97;10.13;;;0.50;32.30;;;;;;2611035;54;20435;-76
2022/03/09 02:51:34;;;;;;;13.20;8.33;;;0.50;33.90;;;;;;2609189;46;21035;-76
2022/03/09 02:54:01;;;;;;;9.80;8.80;;;0.50;34.60;;;;;;2612279;31;20850;-75
2022/03/09 02:56:27;;;;;;;14.90;7.90;;;0.50;34.30;;;;;;2607902;47;21031;-76
2022/03/09 02:58:53;;;;;;;13.53;7.63;;;0.60;30.90;;;;;;2610814;54;20926;-75
2022/03/09 03:01:19;;;;;;;13.43;7.00;;;0.70;28.00;;;;;;2611666;54;20414;-76
2022/03/09 03:03:46;;;;;;;10.17;6.93;;;1.00;22.40;;;;;;2611635;39;21391;-76
2022/03/09 03:06:13;;;;;;;11.77;7.13;;;1.10;21.40;;;;;;2613500;54;20434;-75
2022/03/09 03:08:39;;;;;;;9.77;7.60;;;1.30;20.20;;;;;;2612528;54;20450;-75
2022/03/09 03:11:11;;;;;;;8.67;6.60;;;1.40;17.40;;;;;;2613103;39;20859;-76
2022/03/09 03:13:39;;;;;;;12.43;7.30;;;1.60;14.00;;;;;;2613713;54;20399;-76
2022/03/09 03:16:06;;;;;;;7.83;5.67;;;1.90;10.30;;;;;;2614047;47;21033;-76
2022/03/09 03:18:32;;;;;;;9.77;6.70;;;2.10;8.20;;;;;;2615084;54;20486;-76
2022/03/09 03:20:58;;;;;;;10.43;7.33;;;2.30;7.10;;;;;;2613677;54;20418;-75
2022/03/09 03:23:25;;;;;;;10.90;7.60;;;2.40;6.50;;;;;;2614121;54;20395;-75
2022/03/09 03:25:52;;;;;;;12.60;7.73;;;2.60;6.80;;;;;;2611011;39;20451;-76
2022/03/09 03:28:19;;;;;;;9.43;7.60;;;2.50;6.70;;;;;;2612628;47;20459;-76
2022/03/09 03:30:45;;;;;;;10.07;6.70;;;2.40;6.60;;;;;;2612776;54;20446;-75
2022/03/09 03:33:13;;;;;;;8.80;7.10;;;2.40;7.10;;;;;;2612015;54;20423;-76
2022/03/09 03:35:39;;;;;;;12.90;7.17;;;2.40;5.00;;;;;;2612029;39;21002;-75
2022/03/09 03:38:05;;;;;;;8.63;6.50;;;2.60;2.70;;;;;;2611416;54;20972;-78
2022/03/09 03:40:31;;;;;;;9.13;6.90;;;2.70;2.30;;;;;;2613044;54;20411;-76
2022/03/09 03:42:56;;;;;;;9.00;7.20;;;2.80;1.00;;;;;;2612974;47;20173;-75
2022/03/09 03:45:22;;;;;;;7.30;6.37;;;2.90;1.00;;;;;;2614119;54;20420;-75
2022/03/09 03:47:48;;;;;;;9.93;7.80;;;3.00;1.00;;;;;;2612572;54;20462;-75
2022/03/09 03:50:14;;;;;;;8.23;7.40;;;3.20;1.00;;;;;;2607688;54;20155;-74
2022/03/09 03:52:40;;;;;;;12.37;7.07;;;3.20;1.00;;;;;;2610303;54;20155;-74
2022/03/09 03:55:06;;;;;;;8.20;6.40;;;3.30;1.00;;;;;;2611931;54;20416;-76
2022/03/09 03:57:32;;;;;;;10.23;7.50;;;3.30;1.00;;;;;;2612103;54;20431;-76
2022/03/09 03:59:58;;;;;;;10.30;7.17;;;3.40;1.00;;;;;;2612271;54;20410;-76
2022/03/09 04:02:24;;;;;;;9.67;7.63;;;3.50;1.00;;;;;;2611149;47;20465;-75
2022/03/09 04:04:52;;;;;;;11.73;7.93;;;3.60;1.00;;;;;;2613513;39;21030;-76
2022/03/09 04:07:19;;;;;;;12.00;7.63;;;3.60;1.00;;;;;;2613740;54;20215;-76
2022/03/09 04:09:45;;;;;;;10.73;7.13;;;3.40;1.00;;;;;;2612634;54;20483;-76
2022/03/09 04:12:12;;;;;;;7.93;7.13;;;3.40;1.00;;;;;;2609322;51;20987;-75
2022/03/09 04:14:38;;;;;;;8.87;7.47;;;3.30;1.00;;;;;;2610084;54;20436;-76
2022/03/09 04:17:04;;;;;;;8.73;7.43;;;3.20;1.00;;;;;;2611929;47;20511;-76
2022/03/09 04:19:30;;;;;;;8.50;6.70;;;;;;;;;;2613491;54;20972;-76
2022/03/09 04:21:56;;;;;;;9.40;7.40;;;3.00;1.00;;;;;;2612488;54;20419;-76
2022/03/09 04:24:22;;;;;;;14.53;7.40;;;3.10;1.00;;;;;;2612087;54;20967;-75
2022/03/09 04:26:48;;;;;;;9.40;6.77;;;3.10;1.00;;;;;;2608637;54;20954;-76
2022/03/09 04:29:14;;;;;;;7.07;6.37;;;3.30;1.00;;;;;;2611433;54;20494;-75
2022/03/09 04:31:41;;;;;;;7.80;7.00;;;3.50;1.00;;;;;;2611329;54;20524;-75
2022/03/09 04:34:07;;;;;;;9.13;7.80;;;3.50;1.00;;;;;;2609798;47;20210;-75
2022/03/09 04:36:33;;;;;;;7.97;6.90;;;3.70;1.00;;;;;;2612120;47;20419;-74
2022/03/09 04:38:59;;;;;;;8.00;7.20;;;3.80;1.00;;;;;;2613032;54;20238;-75
2022/03/09 04:41:26;;;;;;;10.80;7.73;;;3.70;1.00;;;;;;2610997;54;20147;-75
2022/03/09 04:43:51;;;;;;;8.30;7.23;;;3.60;1.00;;;;;;2612880;39;20781;-74
2022/03/09 04:46:17;;;;;;;12.70;8.23;;;3.50;1.00;;;;;;2613573;54;20575;-75
2022/03/09 04:48:44;;;;;;;9.03;6.93;;;2.20;4.80;;;;;;2611962;47;20515;-76
2022/03/09 04:51:11;;;;;;;10.43;7.50;;;3.10;2.50;;;;;;2612376;54;20427;-75
2022/03/09 04:53:36;;;;;;;11.10;7.87;;;3.30;1.00;;;;;;2611313;46;20535;-76
2022/03/09 04:56:03;;;;;;;11.20;7.50;;;3.40;1.00;;;;;;2610672;54;20447;-74
2022/03/09 04:58:28;;;;;;;11.43;6.60;;;3.50;1.00;;;;;;2613201;54;20210;-75
2022/03/09 05:00:54;;;;;;;9.80;7.47;;;3.40;1.00;;;;;;2610801;47;20390;-75
2022/03/09 05:03:20;;;;;;;12.10;8.33;;;3.40;1.00;;;;;;2611165;47;20167;-76
2022/03/09 05:05:46;;;;;;;11.37;6.53;;;3.40;1.00;;;;;;2611847;46;20189;-75
2022/03/09 05:08:12;;;;;;;8.67;6.37;;;3.40;1.00;;;;;;2612957;47;20443;-75
2022/03/09 05:10:39;;;;;;;9.10;7.50;;;3.40;1.00;;;;;;2611976;54;20182;-75
2022/03/09 05:13:05;;;;;;;12.70;6.97;;;3.30;1.00;;;;;;2614115;54;20400;-77
2022/03/09 05:15:31;;;;;;;12.53;7.10;;;3.30;1.00;;;;;;2609634;47;21164;-75
2022/03/09 05:17:58;;;;;;;9.97;7.77;;;3.00;1.00;;;;;;2607009;46;20503;-75
2022/03/09 05:20:24;;;;;;;8.47;7.60;;;2.90;1.00;;;;;;2611549;54;20403;-75
2022/03/09 05:22:51;;;;;;;9.20;6.60;;;2.80;1.00;;;;;;2614225;39;20854;-75
2022/03/09 05:25:17;;;;;;;10.90;7.60;;;2.80;1.00;;;;;;2612025;54;20447;-75
2022/03/09 05:27:43;;;;;;;12.30;7.30;;;2.40;5.70;;;;;;2610576;54;21285;-75
2022/03/09 05:30:09;;;;;;;10.03;7.27;;;2.50;1.10;;;;;;2613765;54;20394;-74
2022/03/09 05:32:36;;;;;;;13.27;7.00;;;2.20;3.50;;;;;;2612637;47;21262;-76
2022/03/09 05:35:04;;;;;;;9.00;7.57;;;2.00;4.70;;;;;;2611326;54;20395;-74
2022/03/09 05:37:39;;;;;;;9.03;7.20;;;1.80;5.60;;;;;;2608388;47;20521;-74
2022/03/09 05:40:06;;;;;;;10.63;7.23;;;1.80;6.30;;;;;;2611489;39;21018;-76
2022/03/09 05:42:33;;;;;;;8.73;7.17;;;;;;;;;;2612962;54;20411;-75
2022/03/09 05:44:59;;;;;;;15.70;9.43;;;1.40;8.10;;;;;;2610353;54;20418;-75
2022/03/09 05:47:25;;;;;;;9.20;7.93;;;1.50;8.20;;;;;;2613435;54;20399;-75
2022/03/09 05:49:51;;;;;;;7.43;6.60;;;1.40;16.40;;;;;;2612059;54;20403;-75
2022/03/09 05:52:17;;;;;;;10.00;7.27;;;1.50;9.40;;;;;;2611122;39;20514;-76
2022/03/09 05:54:45;;;;;;;9.93;8.70;;;1.60;6.70;;;;;;2612635;54;20157;-75
2022/03/09 05:57:22;;;;;;;12.10;8.10;;;1.70;4.80;;;;;;2611610;39;20904;-76
2022/03/09 05:59:48;;;;;;;10.97;7.63;;;1.80;5.70;;;;;;2613189;39;20969;-75
2022/03/09 06:02:14;;;;;;;10.73;8.40;;;2.10;2.20;;;;;;2610972;54;20406;-75
2022/03/09 06:04:42;;;;;;;7.73;6.07;;;2.30;2.80;;;;;;2610970;54;20400;-75
2022/03/09 06:07:08;;;;;;;11.07;8.60;;;2.30;1.60;;;;;;2610675;54;20426;-74
2022/03/09 06:09:35;;;;;;;10.10;7.90;;;;;;;;;;2613443;54;21004;-76
2022/03/09 06:12:01;;;;;;;9.07;7.90;;;2.40;2.00;;;;;;2610019;54;20404;-75
2022/03/09 06:14:26;;;;;;;19.83;7.47;;;2.40;2.10;;;;;;2613032;39;20757;-76
2022/03/09 06:16:52;;;;;;;12.40;7.63;;;2.40;9.70;;;;;;2608170;47;21351;-75
2022/03/09 06:19:19;;;;;;;13.57;8.77;;;2.40;1.00;;;;;;2607925;54;20437;-75
2022/03/09 06:21:45;;;;;;;12.40;8.00;;;2.50;1.00;;;;;;2609292;54;20155;-76
2022/03/09 06:24:16;;;;;;;12.73;7.97;;;2.60;1.00;;;;;;2609075;54;20415;-76
2022/03/09 06:26:44;;;;;;;10.10;7.70;;;2.80;1.00;;;;;;2609069;47;20705;-76
2022/03/09 06:29:10;;;;;;;8.90;8.00;;;2.90;1.00;;;;;;2610754;47;20497;-77
2022/03/09 06:31:37;;;;;;;10.13;7.53;;;3.00;1.00;;;;;;2613667;46;20407;-76
2022/03/09 06:34:03;;;;;;;7.77;6.93;;;;;;;;;;2614803;47;20399;-76
2022/03/09 06:36:29;;;;;;;13.40;7.60;;;3.40;1.00;;;;;;2613954;46;20573;-76
2022/03/09 06:38:55;;;;;;;9.70;7.17;;;3.50;1.00;;;;;;2613331;54;20414;-78
2022/03/09 06:41:22;;;;;;;8.13;7.27;;;3.50;1.00;;;;;;2614488;54;20493;-76
2022/03/09 06:43:48;;;;;;;12.03;8.70;;;3.60;1.00;;;;;;2615114;46;20408;-76
2022/03/09 06:46:16;;;;;;;13.17;7.43;;;5.60;4.20;;;;;;2632227;36;20500;-76
2022/03/09 06:48:43;;;;;;;9.67;7.50;;;4.10;1.00;;;;;;2614101;54;20399;-76
2022/03/09 06:51:09;;;;;;;11.90;7.33;;;4.30;1.00;;;;;;2612214;54;20400;-75
2022/03/09 06:53:34;;;;;;;11.67;6.60;;;4.60;1.00;;;;;;2613724;39;21106;-76
2022/03/09 06:56:24;;;;;;;8.60;7.47;;;4.80;1.00;;;;;;2613649;54;20444;-76
2022/03/09 06:58:50;;;;;;;10.80;8.13;;;;;;;;;;2615046;54;20147;-77
2022/03/09 07:01:16;;;;;;;9.63;8.50;;;5.30;1.00;;;;;;2614201;47;20514;-76
2022/03/09 07:03:42;;;;;;;10.57;7.80;;;5.50;1.00;;;;;;2612613;47;20968;-76
2022/03/09 07:06:07;;;;;;;12.03;8.60;;;5.70;1.00;;;;;;2610870;51;20239;-76
2022/03/09 07:08:34;;;;;;;19.50;8.30;;;6.60;1.00;;;;;;2615766;47;20189;-77
2022/03/09 07:11:01;;;;;;;8.87;7.70;;;;;;;;;;2614232;54;20514;-78
2022/03/09 07:13:27;;;;;;;9.30;8.37;;;7.00;1.00;;;;;;2615327;54;20254;-77
2022/03/09 07:15:52;;;;;;;15.03;8.83;;;7.80;1.00;;;;;;2612110;54;20420;-78
2022/03/09 07:18:18;;;;;;;8.93;7.83;;;8.40;1.00;;;;;;2615867;39;20551;-78
2022/03/09 07:20:45;;;;;;;12.30;8.57;;;8.20;1.00;;;;;;2614580;47;21454;-78
2022/03/09 07:23:12;;;;;;;13.73;8.80;;;8.50;1.00;;;;;;2612401;47;20479;-77
2022/03/09 07:25:38;;;;;;;10.20;8.60;;;8.30;1.00;;;;;;2630181;36;20480;-78
2022/03/09 07:28:05;;;;;;;12.27;8.60;;;8.30;1.00;;;;;;2605503;54;20445;-78
2022/03/09 07:30:31;;;;;;;9.90;8.90;;;8.50;1.00;;;;;;2609271;54;20461;-76
2022/03/09 07:32:58;;;;;;;8.57;7.20;;;8.50;1.00;;;;;;2611576;47;20423;-76
2022/03/09 07:35:24;;;;;;;9.47;8.57;;;8.70;1.00;;;;;;2611147;54;20413;-75
2022/03/09 07:37:51;;;;;;;14.13;9.10;;;8.60;1.00;;;;;;2614234;54;20414;-76
2022/03/09 07:40:19;;;;;;;11.20;8.67;;;;;;;;;;2611873;54;20541;-78
2022/03/09 07:42:47;;;;;;;9.80;8.43;;;8.80;1.00;;;;;;2612106;47;20567;-76
2022/03/09 07:45:13;;;;;;;12.60;8.67;;;8.90;1.00;;;;;;2610882;47;21084;-75
2022/03/09 07:47:40;;;;;;;10.00;8.57;;;9.00;1.00;;;;;;2611321;47;20486;-76
2022/03/09 07:50:07;;;;;;;11.93;7.83;;;9.50;1.00;;;;;;2609802;54;20412;-77
2022/03/09 07:52:34;;;;;;;10.67;8.07;;;9.30;1.00;;;;;;2611599;46;20448;-79
2022/03/09 07:55:02;;;;;;;9.27;8.00;;;9.60;1.00;;;;;;2611525;54;20397;-77
2022/03/09 07:57:27;;;;;;;12.07;8.10;;;9.80;1.00;;;;;;2614148;54;20451;-77
2022/03/09 08:00:18;;;;;;;9.30;8.40;;;10.40;1.00;;;;;;2614709;47;20421;-77
2022/03/09 08:02:45;;;;;;;9.17;8.30;;;10.70;1.00;;;;;;2610737;46;20548;-78
2022/03/09 08:05:12;;;;;;;10.33;9.33;;;;;;;;;;2613674;54;20426;-77
2022/03/09 08:07:38;;;;;;;9.20;8.10;;;10.70;1.00;;;;;;2613608;47;20466;-77
2022/03/09 08:10:05;;;;;;;9.43;8.40;;;10.80;1.00;;;;;;2609828;54;21705;-78
2022/03/09 08:12:31;;;;;;;9.70;8.77;;;11.00;1.00;;;;;;2611842;54;20454;-77
2022/03/09 08:14:57;;;;;;;10.13;9.10;;;11.00;1.00;;;;;;2613357;54;20406;-76
2022/03/09 08:17:23;;;;;;;13.27;9.73;;;11.20;1.00;;;;;;2615663;39;21178;-76
2022/03/09 08:19:50;;;;;;;10.30;9.30;;;11.40;1.00;;;;;;2615539;54;20422;-77
2022/03/09 08:22:17;;;;;;;10.73;9.47;;;11.90;1.00;;;;;;2613427;47;20702;-76
2022/03/09 08:24:43;;;;;;;10.20;8.63;;;12.30;1.00;;;;;;2613791;50;20439;-78
2022/03/09 08:27:11;;;;;;;11.70;9.00;;;12.00;1.00;;;;;;2614023;54;20464;-79
2022/03/09 08:29:36;;;;;;;8.77;8.00;;;11.90;1.00;;;;;;2614209;54;20986;-77
2022/03/09 08:32:02;;;;;;;13.07;10.00;;;11.60;1.00;;;;;;2614903;54;20387;-77
2022/03/09 08:34:28;;;;;;;12.43;9.00;;;11.70;1.00;;;;;;2615100;54;20403;-78
2022/03/09 08:36:54;;;;;;;10.80;9.30;;;11.10;1.00;;;;;;2614416;47;20436;-78
2022/03/09 08:39:20;;;;;;;9.57;8.60;;;11.40;1.00;;;;;;2614838;46;20178;-78
2022/03/09 08:41:48;;;;;;;11.43;8.47;;;11.50;1.00;;;;;;2614671;47;20562;-78
2022/03/09 08:44:15;;;;;;;8.97;8.10;;;11.50;1.00;;;;;;2614591;46;20190;-77
2022/03/09 08:46:41;;;;;;;10.10;8.30;;;;;;;;;;2612558;47;20439;-77
2022/03/09 08:49:07;;;;;;;11.63;7.93;;;;;;;;;;2613119;54;20431;-77
2022/03/09 08:51:33;;;;;;;11.80;8.90;;;12.20;1.00;;;;;;2615771;54;20525;-77
2022/03/09 08:54:00;;;;;;;8.57;7.87;;;12.00;1.00;;;;;;2615535;39;20783;-76
2022/03/09 08:56:28;;;;;;;12.13;7.80;;;12.20;1.00;;;;;;2614771;47;20423;-77
2022/03/09 08:58:56;;;;;;;13.10;9.47;;;;;;;;;;2611703;54;20976;-77
2022/03/09 09:01:22;;;;;;;17.20;10.03;;;;;;;;;;2613141;47;20420;-78
2022/03/09 09:03:49;;;;;;;9.60;8.60;;;12.50;1.00;;;;;;2612396;47;20424;-77
2022/03/09 09:06:15;;;;;;;11.50;9.90;;;;;;;;;;2613033;47;20402;-77
2022/03/09 09:08:42;;;;;;;10.60;8.87;;;12.80;1.00;;;;;;2611707;47;20204;-78
2022/03/09 09:11:09;;;;;;;14.20;9.27;;;;;;;;;;2613773;47;20432;-78
2022/03/09 09:13:34;;;;;;;10.20;9.20;;;13.20;1.00;;;;;;2613518;46;20170;-78
2022/03/09 09:16:00;;;;;;;10.80;9.73;;;13.60;1.00;;;;;;2613788;47;20564;-78
2022/03/09 09:18:27;;;;;;;17.10;9.80;;;13.30;1.00;;;;;;2613541;47;20698;-77
2022/03/09 09:20:53;;;;;;;11.77;9.83;;;13.50;1.00;;;;;;2614105;54;20158;-77
2022/03/09 09:23:21;;;;;;;9.83;9.00;;;13.70;1.00;;;;;;2613171;31;22260;-77
2022/03/09 09:25:47;;;;;;;15.70;10.13;;;13.80;1.00;;;;;;2612431;47;20475;-76
2022/03/09 09:28:17;;;;;;;11.20;10.10;;;14.40;1.00;;;;;;2611062;54;20439;-77
2022/03/09 09:30:43;;;;;;;19.40;10.67;;;;;;;;;;2612793;47;20420;-77
2022/03/09 09:33:09;;;;;;;12.13;10.50;;;14.80;1.00;;;;;;2611079;54;20403;-77
2022/03/09 09:35:35;;;;;;;12.53;11.43;;;14.70;1.00;;;;;;2612695;54;20415;-78
2022/03/09 09:38:06;;;;;;;11.80;10.73;;;14.90;1.00;;;;;;2614212;54;20415;-77
2022/03/09 09:40:41;;;;;;;11.60;10.70;;;15.30;1.00;;;;;;2612867;47;20432;-77
2022/03/09 09:43:17;;;;;;;13.37;12.23;;;15.80;1.00;;;;;;2610830;39;20823;-77
2022/03/09 09:45:45;;;;;;;12.70;11.40;;;15.50;1.00;;;;;;2610721;47;20399;-77
2022/03/09 09:48:12;;;;;;;13.40;12.20;;;15.30;1.00;;;;;;2612560;47;20443;-78
2022/03/09 09:50:40;;;;;;;12.90;10.97;;;15.30;1.00;;;;;;2611454;47;20427;-76
2022/03/09 09:53:08;;;;;;;12.10;10.97;;;15.20;1.00;;;;;;2612374;47;20415;-78
2022/03/09 09:55:35;;;;;;;11.63;10.63;;;14.90;1.00;;;;;;2612235;39;21246;-78
2022/03/09 09:58:01;;;;;;;12.73;10.43;;;15.10;1.00;;;;;;2611047;47;20435;-77
2022/03/09 10:00:27;;;;;;;12.70;11.53;;;15.20;1.00;;;;;;2614617;46;20983;-76
2022/03/09 10:02:53;;;;;;;13.83;12.40;;;15.00;1.00;;;;;;2614565;54;20518;-77
2022/03/09 10:05:19;;;;;;;15.00;10.60;;;15.20;1.00;;;;;;2613472;54;20446;-77
2022/03/09 10:08:04;;;;;;;12.93;11.73;;;15.30;1.00;;;;;;2610970;54;20538;-76
2022/03/09 10:10:34;;;;;;;15.33;12.40;;;15.20;1.00;;;;;;2610394;47;20415;-76
2022/03/09 10:13:19;;;;;;;12.70;11.70;;;15.30;1.00;;;;;;2610431;54;20391;-76
2022/03/09 10:15:48;;;;;;;13.93;12.73;;;15.40;1.00;;;;;;2614913;46;20404;-76
2022/03/09 10:18:15;;;;;;;12.87;11.63;;;15.70;1.00;;;;;;2609627;39;20983;-76
2022/03/09 10:20:42;;;;;;;13.70;12.40;;;15.20;1.00;;;;;;2611494;47;20415;-77
2022/03/09 10:23:10;;;;;;;12.03;10.83;;;15.60;1.00;;;;;;2616176;46;20445;-78
2022/03/09 10:25:38;;;;;;;13.43;12.10;;;15.50;1.00;;;;;;2611887;47;20438;-78
2022/03/09 10:28:09;;;;;;;12.13;11.00;;;16.00;1.00;;;;;;2611121;47;20428;-78
2022/03/09 10:30:39;;;;;;;13.10;11.80;;;15.60;1.00;;;;;;2614485;46;20411;-78
2022/03/09 10:33:05;;;;;;;13.83;12.27;;;;;;;;;;2612408;47;20430;-78
2022/03/09 10:35:32;;;;;;;12.97;11.60;;;15.20;1.00;;;;;;2616149;46;20424;-77
2022/03/09 10:38:00;;;;;;;12.97;11.87;;;15.20;1.00;;;;;;2615477;51;20415;-77
2022/03/09 10:40:51;;;;;;;13.37;12.30;;;15.10;1.00;;;;;;2612554;46;20498;-77
2022/03/09 10:43:30;;;;;;;13.03;11.73;;;15.40;1.00;;;;;;2611823;54;20423;-79
2022/03/09 10:46:11;;;;;;;13.90;12.50;;;15.80;1.00;;;;;;2611729;47;20427;-77
2022/03/09 10:49:00;;;;;;;12.60;11.50;;;15.40;1.00;;;;;;2612147;47;20423;-79
2022/03/09 10:51:42;;;;;;;13.17;11.43;;;15.20;1.00;;;;;;2615394;54;20465;-76
2022/03/09 10:54:09;;;;;;;14.83;13.53;;;15.50;1.00;;;;;;2612052;39;21663;-77
2022/03/09 10:56:37;;;;;;;14.93;13.47;;;15.80;1.00;;;;;;2612599;46;20541;-78
2022/03/09 10:59:15;;;;;;;13.30;11.50;;;;;;;;;;2613154;47;20415;-77
2022/03/09 11:02:00;;;;;;;13.83;12.63;;;16.00;1.00;;;;;;2615323;54;20546;-77
2022/03/09 11:04:27;;;;;;;13.30;11.93;;;15.90;1.00;;;;;;2612338;47;20404;-77
2022/03/09 11:06:55;;;;;;;12.57;11.33;;;;;;;;;;2614487;54;21110;-77
2022/03/09 11:09:20;;;;;;;13.90;12.73;;;16.10;1.00;;;;;;2612129;47;20418;-78
2022/03/09 11:11:48;;;;;;;14.67;13.47;;;16.20;1.00;;;;;;2613125;46;20502;-78
2022/03/09 11:14:16;;;;;;;14.27;12.90;;;16.50;1.00;;;;;;2612815;54;20151;-77
2022/03/09 11:16:46;;;;;;;15.10;13.80;;;16.70;1.00;;;;;;2610016;46;21033;-76
2022/03/09 11:19:13;;;;;;;13.60;12.40;;;16.60;1.00;;;;;;2611050;47;20991;-78
2022/03/09 11:21:41;;;;;;;14.13;12.93;;;17.00;1.00;;;;;;2613894;47;20519;-78
2022/03/09 11:24:09;;;;;;;14.03;12.83;;;16.50;1.00;;;;;;2614419;47;20414;-76
2022/03/09 11:26:43;;;;;;;14.07;12.80;;;15.30;1.00;;;;;;2612185;46;21598;-78
2022/03/09 11:29:12;;;;;;;14.83;13.40;;;17.10;1.00;;;;;;2616666;54;20439;-78
2022/03/09 11:31:46;;;;;;;14.97;13.60;;;17.20;1.00;;;;;;2613874;54;20429;-77
2022/03/09 11:34:32;;;;;;;15.33;13.87;;;16.80;1.00;;;;;;2613882;47;20422;-79
2022/03/09 11:37:00;;;;;;;14.40;13.20;;;16.80;1.00;;;;;;2611959;47;20475;-76
2022/03/09 11:39:28;;;;;;;14.53;13.23;;;17.00;1.00;;;;;;2613956;46;20435;-77
2022/03/09 11:42:22;;;;;;;14.13;12.80;;;17.10;1.00;;;;;;2614861;54;20461;-77
2022/03/09 11:44:54;;;;;;;13.57;12.40;;;16.40;1.00;;;;;;2615027;46;20423;-77
2022/03/09 11:47:21;;;;;;;14.43;13.10;;;16.40;1.00;;;;;;2613850;54;20478;-77
2022/03/09 11:49:49;;;;;;;14.70;13.20;;;16.20;1.00;;;;;;2613587;47;20936;-77
2022/03/09 11:52:17;;;;;;;15.47;14.20;;;16.70;1.00;;;;;;2614305;39;21177;-76
2022/03/09 11:54:46;;;;;;;13.90;12.70;;;16.60;1.00;;;;;;2614097;39;20838;-77
2022/03/09 11:57:13;;;;;;;14.03;12.93;;;16.50;1.00;;;;;;2612447;47;20419;-77
2022/03/09 12:00:00;;;;;;;15.07;13.87;;;16.60;1.00;;;;;;2613338;54;20410;-76
2022/03/09 12:02:41;;;;;;;13.10;12.07;;;17.30;1.00;;;;;;2614292;47;20515;-78
2022/03/09 12:05:25;;;;;;;15.40;14.00;;;17.40;1.00;;;;;;2613985;54;20419;-76
2022/03/09 12:07:52;;;;;;;16.10;14.70;;;17.20;1.00;;;;;;2613722;54;20474;-76
2022/03/09 12:10:21;;;;;;;14.43;13.27;;;17.40;1.00;;;;;;2613618;47;20419;-77
2022/03/09 12:13:10;;;;;;;15.83;14.53;;;17.50;1.00;;;;;;2613891;47;20964;-77
2022/03/09 12:16:14;;;;;;;15.40;13.93;;;17.40;1.00;;;;;;2613215;54;20494;-77
2022/03/09 12:18:51;;;;;;;16.00;14.70;;;17.60;1.00;;;;;;2611671;47;20427;-77
2022/03/09 12:21:50;;;;;;;14.97;13.70;;;17.80;1.00;;;;;;2615359;54;20951;-78
2022/03/09 12:24:21;;;;;;;14.60;13.40;;;18.00;1.00;;;;;;2616070;46;20424;-78
2022/03/09 12:26:55;;;;;;;15.03;13.70;;;17.80;1.00;;;;;;2614070;54;20411;-76
2022/03/09 12:29:21;;;;;;;15.10;13.60;;;17.80;1.00;;;;;;2613785;47;20456;-77
2022/03/09 12:31:58;;;;;;;14.83;13.43;;;18.00;1.00;;;;;;2613072;47;20431;-77
2022/03/09 12:34:49;;;;;;;13.93;12.77;;;18.00;1.00;;;;;;2614725;47;20157;-77
2022/03/09 12:37:22;;;;;;;15.40;14.20;;;18.00;1.00;;;;;;2612678;54;21000;-78
2022/03/09 12:39:50;;;;;;;15.60;14.40;;;18.10;1.00;;;;;;2613371;39;20905;-78
2022/03/09 12:42:17;;;;;;;15.57;14.17;;;17.60;1.00;;;;;;2611222;54;20424;-77
2022/03/09 12:45:10;;;;;;;16.87;14.40;;;17.70;1.00;;;;;;2611133;54;21153;-77
2022/03/09 12:47:37;;;;;;;14.27;12.97;;;17.50;1.00;;;;;;2612728;47;21215;-77
2022/03/09 12:50:04;;;;;;;14.20;13.10;;;17.50;1.00;;;;;;2613087;39;20817;-77
2022/03/09 12:52:40;;;;;;;17.03;15.00;;;18.00;1.00;;;;;;2612040;47;20430;-78
2022/03/09 12:55:33;;;;;;;15.97;14.13;;;17.70;1.00;;;;;;2611670;47;20435;-77
2022/03/09 12:57:59;;;;;;;16.37;14.97;;;17.40;1.00;;;;;;2611699;54;20404;-75
2022/03/09 13:00:27;;;;;;;14.40;13.30;;;17.10;1.00;;;;;;2611567;54;20473;-77
2022/03/09 13:03:21;;;;;;;13.80;12.60;;;16.90;1.00;;;;;;2636625;36;20322;-77